sensor_id;sensor_type;location;lat;lon;timestamp;P1;durP1;ratioP1;P2;durP2;ratioP2
56481;SDS011;42384;45.186;19.958;2023-09-19T00:01:39;7.53;;;4.28;;
56481;SDS011;42384;45.186;19.958;2023-09-19T00:04:07;8.55;;;4.20;;
56481;SDS011;42384;45.186;19.958;2023-09-19T00:06:35;8.75;;;4.07;;
56481;SDS011;42384;45.186;19.958;2023-09-19T00:09:01;11.27;;;4.28;;
56481;SDS011;42384;45.186;19.958;2023-09-19T00:11:28;9.35;;;4.80;;
56481;SDS011;42384;45.186;19.958;2023-09-19T00:13:54;9.60;;;4.50;;
56481;SDS011;42384;45.186;19.958;2023-09-19T00:16:22;8.07;;;4.53;;
56481;SDS011;42384;45.186;19.958;2023-09-19T00:18:48;9.55;;;4.30;;
56481;SDS011;42384;45.186;19.958;2023-09-19T00:21:14;5.60;;;4.07;;
56481;SDS011;42384;45.186;19.958;2023-09-19T00:23:40;7.75;;;4.10;;
56481;SDS011;42384;45.186;19.958;2023-09-19T00:26:07;6.45;;;4.03;;
56481;SDS011;42384;45.186;19.958;2023-09-19T00:28:33;6.68;;;3.90;;
56481;SDS011;42384;45.186;19.958;2023-09-19T00:31:00;5.78;;;4.32;;
56481;SDS011;42384;45.186;19.958;2023-09-19T00:33:27;5.03;;;3.80;;
56481;SDS011;42384;45.186;19.958;2023-09-19T00:35:56;7.32;;;4.07;;
56481;SDS011;42384;45.186;19.958;2023-09-19T00:40:52;6.90;;;3.97;;
56481;SDS011;42384;45.186;19.958;2023-09-19T00:43:21;5.63;;;3.97;;
56481;SDS011;42384;45.186;19.958;2023-09-19T00:45:50;8.27;;;4.38;;
56481;SDS011;42384;45.186;19.958;2023-09-19T00:48:18;8.48;;;4.60;;
56481;SDS011;42384;45.186;19.958;2023-09-19T00:50:45;7.45;;;4.18;;
56481;SDS011;42384;45.186;19.958;2023-09-19T00:53:13;5.57;;;3.72;;
56481;SDS011;42384;45.186;19.958;2023-09-19T00:55:40;5.40;;;4.00;;
56481;SDS011;42384;45.186;19.958;2023-09-19T00:58:08;6.22;;;4.22;;
56481;SDS011;42384;45.186;19.958;2023-09-19T01:00:35;13.15;;;4.00;;
56481;SDS011;42384;45.186;19.958;2023-09-19T01:03:02;8.27;;;3.95;;
56481;SDS011;42384;45.186;19.958;2023-09-19T01:05:28;7.30;;;3.85;;
56481;SDS011;42384;45.186;19.958;2023-09-19T01:07:57;8.73;;;4.28;;
56481;SDS011;42384;45.186;19.958;2023-09-19T01:10:24;9.45;;;4.63;;
56481;SDS011;42384;45.186;19.958;2023-09-19T01:23:21;10.55;;;4.38;;
56481;SDS011;42384;45.186;19.958;2023-09-19T01:31:09;9.02;;;3.80;;
56481;SDS011;42384;45.186;19.958;2023-09-19T01:36:23;9.88;;;4.15;;
56481;SDS011;42384;45.186;19.958;2023-09-19T01:38:50;10.35;;;4.45;;
56481;SDS011;42384;45.186;19.958;2023-09-19T01:41:17;6.57;;;4.40;;
56481;SDS011;42384;45.186;19.958;2023-09-19T01:43:48;5.60;;;4.18;;
56481;SDS011;42384;45.186;19.958;2023-09-19T01:46:18;7.78;;;3.92;;
56481;SDS011;42384;45.186;19.958;2023-09-19T01:51:23;8.98;;;3.65;;
56481;SDS011;42384;45.186;19.958;2023-09-19T01:53:59;9.25;;;4.35;;
56481;SDS011;42384;45.186;19.958;2023-09-19T01:56:29;5.68;;;3.65;;
56481;SDS011;42384;45.186;19.958;2023-09-19T01:58:59;9.32;;;4.50;;
56481;SDS011;42384;45.186;19.958;2023-09-19T02:01:29;8.70;;;4.55;;
56481;SDS011;42384;45.186;19.958;2023-09-19T02:03:55;9.13;;;4.65;;
56481;SDS011;42384;45.186;19.958;2023-09-19T02:06:22;8.55;;;4.72;;
56481;SDS011;42384;45.186;19.958;2023-09-19T02:08:50;8.93;;;4.00;;
56481;SDS011;42384;45.186;19.958;2023-09-19T02:11:17;7.40;;;4.72;;
56481;SDS011;42384;45.186;19.958;2023-09-19T02:13:43;5.00;;;4.40;;
56481;SDS011;42384;45.186;19.958;2023-09-19T02:16:09;6.38;;;4.40;;
56481;SDS011;42384;45.186;19.958;2023-09-19T02:18:36;6.13;;;3.95;;
56481;SDS011;42384;45.186;19.958;2023-09-19T02:21:02;6.85;;;4.50;;
56481;SDS011;42384;45.186;19.958;2023-09-19T02:25:58;9.13;;;4.20;;
56481;SDS011;42384;45.186;19.958;2023-09-19T02:28:29;9.00;;;4.40;;
56481;SDS011;42384;45.186;19.958;2023-09-19T02:30:57;9.73;;;4.32;;
56481;SDS011;42384;45.186;19.958;2023-09-19T02:35:54;7.03;;;3.60;;
56481;SDS011;42384;45.186;19.958;2023-09-19T02:38:23;8.15;;;3.97;;
56481;SDS011;42384;45.186;19.958;2023-09-19T02:40:51;9.45;;;4.65;;
56481;SDS011;42384;45.186;19.958;2023-09-19T02:43:18;8.55;;;4.45;;
56481;SDS011;42384;45.186;19.958;2023-09-19T02:45:45;9.13;;;4.18;;
56481;SDS011;42384;45.186;19.958;2023-09-19T02:48:12;7.88;;;4.20;;
56481;SDS011;42384;45.186;19.958;2023-09-19T02:50:38;6.68;;;3.78;;
56481;SDS011;42384;45.186;19.958;2023-09-19T02:53:05;13.07;;;4.40;;
56481;SDS011;42384;45.186;19.958;2023-09-19T02:55:32;17.10;;;4.13;;
56481;SDS011;42384;45.186;19.958;2023-09-19T02:57:59;9.63;;;4.05;;
56481;SDS011;42384;45.186;19.958;2023-09-19T03:00:27;5.50;;;3.83;;
56481;SDS011;42384;45.186;19.958;2023-09-19T03:02:54;7.88;;;4.07;;
56481;SDS011;42384;45.186;19.958;2023-09-19T03:05:21;8.05;;;4.32;;
56481;SDS011;42384;45.186;19.958;2023-09-19T03:07:48;6.18;;;4.10;;
56481;SDS011;42384;45.186;19.958;2023-09-19T03:10:18;10.60;;;3.92;;
56481;SDS011;42384;45.186;19.958;2023-09-19T03:12:45;9.05;;;3.97;;
56481;SDS011;42384;45.186;19.958;2023-09-19T03:15:11;8.10;;;4.72;;
56481;SDS011;42384;45.186;19.958;2023-09-19T03:17:43;6.88;;;4.05;;
56481;SDS011;42384;45.186;19.958;2023-09-19T03:20:10;6.32;;;4.13;;
56481;SDS011;42384;45.186;19.958;2023-09-19T03:22:38;8.10;;;4.45;;
56481;SDS011;42384;45.186;19.958;2023-09-19T03:25:08;7.75;;;4.30;;
56481;SDS011;42384;45.186;19.958;2023-09-19T03:27:37;6.00;;;4.10;;
56481;SDS011;42384;45.186;19.958;2023-09-19T03:30:04;7.63;;;4.25;;
56481;SDS011;42384;45.186;19.958;2023-09-19T03:32:34;10.35;;;4.60;;
56481;SDS011;42384;45.186;19.958;2023-09-19T03:35:02;6.68;;;3.53;;
56481;SDS011;42384;45.186;19.958;2023-09-19T03:37:31;9.90;;;4.43;;
56481;SDS011;42384;45.186;19.958;2023-09-19T03:39:58;8.93;;;4.47;;
56481;SDS011;42384;45.186;19.958;2023-09-19T03:42:30;6.10;;;4.22;;
56481;SDS011;42384;45.186;19.958;2023-09-19T03:44:56;9.00;;;4.13;;
56481;SDS011;42384;45.186;19.958;2023-09-19T03:47:23;8.90;;;4.40;;
56481;SDS011;42384;45.186;19.958;2023-09-19T03:49:50;5.50;;;4.03;;
56481;SDS011;42384;45.186;19.958;2023-09-19T03:52:17;17.17;;;4.40;;
56481;SDS011;42384;45.186;19.958;2023-09-19T03:54:44;8.65;;;4.90;;
56481;SDS011;42384;45.186;19.958;2023-09-19T03:57:10;9.25;;;4.38;;
56481;SDS011;42384;45.186;19.958;2023-09-19T03:59:41;11.98;;;4.82;;
56481;SDS011;42384;45.186;19.958;2023-09-19T04:02:08;7.35;;;4.82;;
56481;SDS011;42384;45.186;19.958;2023-09-19T04:04:48;6.75;;;4.43;;
56481;SDS011;42384;45.186;19.958;2023-09-19T04:07:14;8.60;;;4.55;;
56481;SDS011;42384;45.186;19.958;2023-09-19T04:09:40;15.05;;;4.82;;
56481;SDS011;42384;45.186;19.958;2023-09-19T04:12:07;7.15;;;4.40;;
56481;SDS011;42384;45.186;19.958;2023-09-19T04:14:36;10.98;;;4.53;;
56481;SDS011;42384;45.186;19.958;2023-09-19T04:17:03;6.95;;;4.53;;
56481;SDS011;42384;45.186;19.958;2023-09-19T04:19:30;8.50;;;4.13;;
56481;SDS011;42384;45.186;19.958;2023-09-19T04:21:57;9.30;;;4.65;;
56481;SDS011;42384;45.186;19.958;2023-09-19T04:24:23;7.93;;;4.63;;
56481;SDS011;42384;45.186;19.958;2023-09-19T04:26:49;9.25;;;4.25;;
56481;SDS011;42384;45.186;19.958;2023-09-19T04:29:15;8.30;;;3.97;;
56481;SDS011;42384;45.186;19.958;2023-09-19T04:31:44;12.60;;;4.65;;
56481;SDS011;42384;45.186;19.958;2023-09-19T04:34:11;11.65;;;4.85;;
56481;SDS011;42384;45.186;19.958;2023-09-19T04:36:41;8.80;;;4.80;;
56481;SDS011;42384;45.186;19.958;2023-09-19T04:39:08;10.15;;;4.90;;
56481;SDS011;42384;45.186;19.958;2023-09-19T04:41:36;9.80;;;5.05;;
56481;SDS011;42384;45.186;19.958;2023-09-19T04:44:04;6.22;;;4.82;;
56481;SDS011;42384;45.186;19.958;2023-09-19T04:46:30;7.07;;;4.53;;
56481;SDS011;42384;45.186;19.958;2023-09-19T04:48:57;8.85;;;4.78;;
56481;SDS011;42384;45.186;19.958;2023-09-19T04:51:23;5.95;;;4.70;;
56481;SDS011;42384;45.186;19.958;2023-09-19T04:53:50;9.20;;;4.95;;
56481;SDS011;42384;45.186;19.958;2023-09-19T04:56:17;7.82;;;4.97;;
56481;SDS011;42384;45.186;19.958;2023-09-19T04:58:44;9.50;;;4.53;;
56481;SDS011;42384;45.186;19.958;2023-09-19T05:01:10;10.20;;;5.22;;
56481;SDS011;42384;45.186;19.958;2023-09-19T05:03:37;9.45;;;5.22;;
56481;SDS011;42384;45.186;19.958;2023-09-19T05:06:03;16.15;;;5.07;;
56481;SDS011;42384;45.186;19.958;2023-09-19T05:10:56;10.90;;;5.57;;
56481;SDS011;42384;45.186;19.958;2023-09-19T05:13:22;13.23;;;5.15;;
56481;SDS011;42384;45.186;19.958;2023-09-19T05:15:49;6.88;;;4.78;;
56481;SDS011;42384;45.186;19.958;2023-09-19T05:18:16;8.57;;;5.45;;
56481;SDS011;42384;45.186;19.958;2023-09-19T05:20:42;7.20;;;5.10;;
56481;SDS011;42384;45.186;19.958;2023-09-19T05:23:09;9.48;;;5.68;;
56481;SDS011;42384;45.186;19.958;2023-09-19T05:25:40;10.23;;;5.00;;
56481;SDS011;42384;45.186;19.958;2023-09-19T05:28:09;12.27;;;5.82;;
56481;SDS011;42384;45.186;19.958;2023-09-19T05:30:37;8.55;;;5.20;;
56481;SDS011;42384;45.186;19.958;2023-09-19T05:33:08;10.23;;;5.65;;
56481;SDS011;42384;45.186;19.958;2023-09-19T05:35:35;8.65;;;5.32;;
56481;SDS011;42384;45.186;19.958;2023-09-19T05:38:07;8.35;;;4.60;;
56481;SDS011;42384;45.186;19.958;2023-09-19T05:40:38;7.63;;;4.75;;
56481;SDS011;42384;45.186;19.958;2023-09-19T05:43:07;8.23;;;5.20;;
56481;SDS011;42384;45.186;19.958;2023-09-19T05:45:33;9.40;;;5.20;;
56481;SDS011;42384;45.186;19.958;2023-09-19T05:48:11;11.98;;;4.57;;
56481;SDS011;42384;45.186;19.958;2023-09-19T05:50:40;10.68;;;5.78;;
56481;SDS011;42384;45.186;19.958;2023-09-19T05:53:07;8.43;;;5.13;;
56481;SDS011;42384;45.186;19.958;2023-09-19T05:55:33;8.68;;;4.70;;
56481;SDS011;42384;45.186;19.958;2023-09-19T05:58:00;7.05;;;5.38;;
56481;SDS011;42384;45.186;19.958;2023-09-19T06:00:28;10.73;;;5.60;;
56481;SDS011;42384;45.186;19.958;2023-09-19T06:02:57;10.02;;;6.43;;
56481;SDS011;42384;45.186;19.958;2023-09-19T06:05:24;8.65;;;5.20;;
56481;SDS011;42384;45.186;19.958;2023-09-19T06:07:52;12.15;;;6.55;;
56481;SDS011;42384;45.186;19.958;2023-09-19T06:10:18;7.88;;;5.20;;
56481;SDS011;42384;45.186;19.958;2023-09-19T06:12:46;12.77;;;5.78;;
56481;SDS011;42384;45.186;19.958;2023-09-19T06:15:13;9.43;;;5.20;;
56481;SDS011;42384;45.186;19.958;2023-09-19T06:17:50;11.50;;;6.70;;
56481;SDS011;42384;45.186;19.958;2023-09-19T06:20:17;13.77;;;5.75;;
56481;SDS011;42384;45.186;19.958;2023-09-19T06:22:45;14.73;;;5.47;;
56481;SDS011;42384;45.186;19.958;2023-09-19T06:25:13;16.30;;;5.63;;
56481;SDS011;42384;45.186;19.958;2023-09-19T06:27:46;10.35;;;5.50;;
56481;SDS011;42384;45.186;19.958;2023-09-19T06:30:12;13.32;;;5.40;;
56481;SDS011;42384;45.186;19.958;2023-09-19T06:32:42;10.80;;;5.32;;
56481;SDS011;42384;45.186;19.958;2023-09-19T06:35:12;14.45;;;4.97;;
56481;SDS011;42384;45.186;19.958;2023-09-19T06:37:39;26.85;;;5.70;;
56481;SDS011;42384;45.186;19.958;2023-09-19T06:40:12;19.35;;;6.55;;
56481;SDS011;42384;45.186;19.958;2023-09-19T06:42:42;13.65;;;5.53;;
56481;SDS011;42384;45.186;19.958;2023-09-19T06:45:10;11.82;;;5.35;;
56481;SDS011;42384;45.186;19.958;2023-09-19T06:47:39;21.85;;;5.82;;
56481;SDS011;42384;45.186;19.958;2023-09-19T06:50:05;17.15;;;5.65;;
56481;SDS011;42384;45.186;19.958;2023-09-19T06:52:38;11.60;;;5.28;;
56481;SDS011;42384;45.186;19.958;2023-09-19T06:55:04;20.40;;;6.25;;
56481;SDS011;42384;45.186;19.958;2023-09-19T06:57:32;15.70;;;5.70;;
56481;SDS011;42384;45.186;19.958;2023-09-19T06:59:58;12.35;;;4.90;;
56481;SDS011;42384;45.186;19.958;2023-09-19T07:02:26;26.60;;;6.63;;
56481;SDS011;42384;45.186;19.958;2023-09-19T07:04:52;13.23;;;5.55;;
56481;SDS011;42384;45.186;19.958;2023-09-19T07:07:18;15.25;;;6.05;;
56481;SDS011;42384;45.186;19.958;2023-09-19T07:09:45;18.80;;;6.43;;
56481;SDS011;42384;45.186;19.958;2023-09-19T07:12:14;22.77;;;6.00;;
56481;SDS011;42384;45.186;19.958;2023-09-19T07:14:40;17.98;;;5.43;;
56481;SDS011;42384;45.186;19.958;2023-09-19T07:17:06;20.77;;;6.25;;
56481;SDS011;42384;45.186;19.958;2023-09-19T07:19:33;15.90;;;5.45;;
56481;SDS011;42384;45.186;19.958;2023-09-19T07:21:59;12.80;;;6.00;;
56481;SDS011;42384;45.186;19.958;2023-09-19T07:24:27;11.23;;;6.18;;
56481;SDS011;42384;45.186;19.958;2023-09-19T07:29:20;16.98;;;6.18;;
56481;SDS011;42384;45.186;19.958;2023-09-19T07:31:46;15.18;;;6.75;;
56481;SDS011;42384;45.186;19.958;2023-09-19T07:34:13;11.13;;;6.35;;
56481;SDS011;42384;45.186;19.958;2023-09-19T07:36:39;19.80;;;5.72;;
56481;SDS011;42384;45.186;19.958;2023-09-19T07:39:07;13.07;;;5.88;;
56481;SDS011;42384;45.186;19.958;2023-09-19T07:41:33;12.68;;;6.50;;
56481;SDS011;42384;45.186;19.958;2023-09-19T07:43:59;10.38;;;5.72;;
56481;SDS011;42384;45.186;19.958;2023-09-19T07:46:26;14.40;;;6.30;;
56481;SDS011;42384;45.186;19.958;2023-09-19T07:48:52;13.02;;;5.90;;
56481;SDS011;42384;45.186;19.958;2023-09-19T07:51:19;18.15;;;6.50;;
56481;SDS011;42384;45.186;19.958;2023-09-19T07:53:45;12.85;;;6.45;;
56481;SDS011;42384;45.186;19.958;2023-09-19T07:56:13;11.32;;;5.95;;
56481;SDS011;42384;45.186;19.958;2023-09-19T08:01:09;14.95;;;6.25;;
56481;SDS011;42384;45.186;19.958;2023-09-19T08:03:36;18.20;;;7.68;;
56481;SDS011;42384;45.186;19.958;2023-09-19T08:06:06;13.95;;;5.57;;
56481;SDS011;42384;45.186;19.958;2023-09-19T08:08:32;14.02;;;6.30;;
56481;SDS011;42384;45.186;19.958;2023-09-19T08:11:06;20.42;;;13.18;;
56481;SDS011;42384;45.186;19.958;2023-09-19T08:13:44;18.52;;;9.00;;
56481;SDS011;42384;45.186;19.958;2023-09-19T08:16:12;11.75;;;6.38;;
56481;SDS011;42384;45.186;19.958;2023-09-19T08:18:40;13.05;;;6.40;;
56481;SDS011;42384;45.186;19.958;2023-09-19T08:23:36;13.20;;;6.40;;
56481;SDS011;42384;45.186;19.958;2023-09-19T08:26:03;14.68;;;6.15;;
56481;SDS011;42384;45.186;19.958;2023-09-19T08:28:33;13.68;;;6.03;;
56481;SDS011;42384;45.186;19.958;2023-09-19T08:31:05;14.75;;;5.70;;
56481;SDS011;42384;45.186;19.958;2023-09-19T08:33:32;23.17;;;6.00;;
56481;SDS011;42384;45.186;19.958;2023-09-19T08:36:00;14.65;;;5.50;;
56481;SDS011;42384;45.186;19.958;2023-09-19T08:40:58;13.68;;;6.15;;
56481;SDS011;42384;45.186;19.958;2023-09-19T08:43:25;16.42;;;6.10;;
56481;SDS011;42384;45.186;19.958;2023-09-19T08:45:57;17.67;;;6.63;;
56481;SDS011;42384;45.186;19.958;2023-09-19T08:48:27;17.80;;;6.57;;
56481;SDS011;42384;45.186;19.958;2023-09-19T08:56:17;14.57;;;6.35;;
56481;SDS011;42384;45.186;19.958;2023-09-19T08:58:47;17.45;;;6.38;;
56481;SDS011;42384;45.186;19.958;2023-09-19T09:01:17;17.70;;;5.93;;
56481;SDS011;42384;45.186;19.958;2023-09-19T09:03:49;21.38;;;6.38;;
56481;SDS011;42384;45.186;19.958;2023-09-19T09:06:16;24.10;;;6.72;;
56481;SDS011;42384;45.186;19.958;2023-09-19T09:08:43;19.30;;;6.57;;
56481;SDS011;42384;45.186;19.958;2023-09-19T09:11:10;16.98;;;6.32;;
56481;SDS011;42384;45.186;19.958;2023-09-19T09:13:36;27.02;;;6.93;;
56481;SDS011;42384;45.186;19.958;2023-09-19T09:16:02;15.50;;;6.25;;
56481;SDS011;42384;45.186;19.958;2023-09-19T09:18:28;16.95;;;6.15;;
56481;SDS011;42384;45.186;19.958;2023-09-19T09:23:21;16.70;;;6.07;;
56481;SDS011;42384;45.186;19.958;2023-09-19T09:25:51;19.65;;;6.78;;
56481;SDS011;42384;45.186;19.958;2023-09-19T09:28:28;30.23;;;6.07;;
56481;SDS011;42384;45.186;19.958;2023-09-19T09:30:54;26.45;;;6.50;;
56481;SDS011;42384;45.186;19.958;2023-09-19T09:33:21;31.08;;;6.25;;
56481;SDS011;42384;45.186;19.958;2023-09-19T09:38:25;35.50;;;7.53;;
56481;SDS011;42384;45.186;19.958;2023-09-19T09:40:58;28.42;;;7.40;;
56481;SDS011;42384;45.186;19.958;2023-09-19T09:43:28;30.02;;;7.72;;
56481;SDS011;42384;45.186;19.958;2023-09-19T09:48:55;22.23;;;6.25;;
56481;SDS011;42384;45.186;19.958;2023-09-19T09:51:40;31.92;;;6.20;;
56481;SDS011;42384;45.186;19.958;2023-09-19T09:54:23;29.75;;;6.03;;
56481;SDS011;42384;45.186;19.958;2023-09-19T10:02:46;26.40;;;6.88;;
56481;SDS011;42384;45.186;19.958;2023-09-19T10:05:13;31.73;;;6.32;;
56481;SDS011;42384;45.186;19.958;2023-09-19T10:07:49;30.13;;;6.43;;
56481;SDS011;42384;45.186;19.958;2023-09-19T10:10:37;35.28;;;6.47;;
56481;SDS011;42384;45.186;19.958;2023-09-19T10:13:07;33.58;;;5.85;;
56481;SDS011;42384;45.186;19.958;2023-09-19T10:15:37;28.95;;;6.32;;
56481;SDS011;42384;45.186;19.958;2023-09-19T10:18:06;29.60;;;6.07;;
56481;SDS011;42384;45.186;19.958;2023-09-19T10:20:36;29.88;;;6.10;;
56481;SDS011;42384;45.186;19.958;2023-09-19T10:23:09;27.50;;;5.85;;
56481;SDS011;42384;45.186;19.958;2023-09-19T10:25:40;29.50;;;6.55;;
56481;SDS011;42384;45.186;19.958;2023-09-19T10:28:07;29.48;;;5.97;;
56481;SDS011;42384;45.186;19.958;2023-09-19T10:30:37;37.40;;;6.82;;
56481;SDS011;42384;45.186;19.958;2023-09-19T10:33:09;39.20;;;9.35;;
56481;SDS011;42384;45.186;19.958;2023-09-19T10:35:37;36.42;;;8.80;;
56481;SDS011;42384;45.186;19.958;2023-09-19T10:38:06;38.90;;;8.88;;
56481;SDS011;42384;45.186;19.958;2023-09-19T10:40:34;37.88;;;9.23;;
56481;SDS011;42384;45.186;19.958;2023-09-19T10:43:04;34.05;;;8.35;;
56481;SDS011;42384;45.186;19.958;2023-09-19T10:45:31;36.38;;;9.48;;
56481;SDS011;42384;45.186;19.958;2023-09-19T10:47:58;50.90;;;9.07;;
56481;SDS011;42384;45.186;19.958;2023-09-19T10:50:25;47.67;;;9.73;;
56481;SDS011;42384;45.186;19.958;2023-09-19T10:52:53;28.35;;;8.52;;
56481;SDS011;42384;45.186;19.958;2023-09-19T10:55:29;39.00;;;8.57;;
56481;SDS011;42384;45.186;19.958;2023-09-19T10:57:56;35.25;;;9.00;;
56481;SDS011;42384;45.186;19.958;2023-09-19T11:00:25;39.38;;;8.48;;
56481;SDS011;42384;45.186;19.958;2023-09-19T11:05:40;38.53;;;9.00;;
56481;SDS011;42384;45.186;19.958;2023-09-19T11:08:10;30.55;;;8.13;;
56481;SDS011;42384;45.186;19.958;2023-09-19T11:10:44;30.55;;;7.72;;
56481;SDS011;42384;45.186;19.958;2023-09-19T11:26:56;24.27;;;5.68;;
56481;SDS011;42384;45.186;19.958;2023-09-19T11:29:34;29.50;;;5.97;;
56481;SDS011;42384;45.186;19.958;2023-09-19T11:32:01;17.63;;;4.90;;
56481;SDS011;42384;45.186;19.958;2023-09-19T11:39:37;27.25;;;4.60;;
56481;SDS011;42384;45.186;19.958;2023-09-19T11:47:55;27.50;;;4.07;;
56481;SDS011;42384;45.186;19.958;2023-09-19T11:50:21;28.17;;;4.75;;
56481;SDS011;42384;45.186;19.958;2023-09-19T11:52:50;27.80;;;5.13;;
56481;SDS011;42384;45.186;19.958;2023-09-19T11:55:16;19.25;;;4.00;;
56481;SDS011;42384;45.186;19.958;2023-09-19T11:57:47;19.45;;;4.25;;
56481;SDS011;42384;45.186;19.958;2023-09-19T12:00:18;26.63;;;4.32;;
56481;SDS011;42384;45.186;19.958;2023-09-19T12:02:46;17.38;;;3.40;;
56481;SDS011;42384;45.186;19.958;2023-09-19T12:05:13;19.40;;;3.92;;
56481;SDS011;42384;45.186;19.958;2023-09-19T12:07:43;17.75;;;3.80;;
56481;SDS011;42384;45.186;19.958;2023-09-19T12:10:12;20.40;;;3.88;;
56481;SDS011;42384;45.186;19.958;2023-09-19T12:12:46;22.23;;;3.05;;
56481;SDS011;42384;45.186;19.958;2023-09-19T12:15:14;18.77;;;3.95;;
56481;SDS011;42384;45.186;19.958;2023-09-19T12:20:07;18.65;;;3.20;;
56481;SDS011;42384;45.186;19.958;2023-09-19T12:25:08;20.17;;;3.35;;
56481;SDS011;42384;45.186;19.958;2023-09-19T12:30:09;16.50;;;3.45;;
56481;SDS011;42384;45.186;19.958;2023-09-19T12:32:35;14.95;;;3.22;;
56481;SDS011;42384;45.186;19.958;2023-09-19T12:35:05;14.73;;;3.10;;
56481;SDS011;42384;45.186;19.958;2023-09-19T12:37:45;27.73;;;3.55;;
56481;SDS011;42384;45.186;19.958;2023-09-19T12:40:17;22.95;;;4.05;;
56481;SDS011;42384;45.186;19.958;2023-09-19T12:42:47;21.55;;;3.78;;
56481;SDS011;42384;45.186;19.958;2023-09-19T12:45:14;15.15;;;3.63;;
56481;SDS011;42384;45.186;19.958;2023-09-19T12:50:27;20.40;;;3.88;;
56481;SDS011;42384;45.186;19.958;2023-09-19T12:52:55;12.90;;;2.85;;
56481;SDS011;42384;45.186;19.958;2023-09-19T12:55:25;18.58;;;2.92;;
56481;SDS011;42384;45.186;19.958;2023-09-19T12:58:25;27.10;;;2.92;;
56481;SDS011;42384;45.186;19.958;2023-09-19T13:00:45;14.43;;;2.22;;
56481;SDS011;42384;45.186;19.958;2023-09-19T13:03:15;15.15;;;2.90;;
56481;SDS011;42384;45.186;19.958;2023-09-19T13:05:49;14.60;;;2.63;;
56481;SDS011;42384;45.186;19.958;2023-09-19T13:13:37;9.93;;;2.45;;
56481;SDS011;42384;45.186;19.958;2023-09-19T13:16:04;13.13;;;2.38;;
56481;SDS011;42384;45.186;19.958;2023-09-19T13:18:43;13.73;;;2.30;;
56481;SDS011;42384;45.186;19.958;2023-09-19T13:21:10;14.68;;;2.75;;
56481;SDS011;42384;45.186;19.958;2023-09-19T13:23:41;14.52;;;2.80;;
56481;SDS011;42384;45.186;19.958;2023-09-19T13:26:08;10.70;;;2.50;;
56481;SDS011;42384;45.186;19.958;2023-09-19T13:28:35;15.05;;;2.70;;
56481;SDS011;42384;45.186;19.958;2023-09-19T13:31:01;14.50;;;2.05;;
56481;SDS011;42384;45.186;19.958;2023-09-19T13:33:28;15.40;;;2.47;;
56481;SDS011;42384;45.186;19.958;2023-09-19T13:35:54;11.20;;;2.05;;
56481;SDS011;42384;45.186;19.958;2023-09-19T13:38:22;14.52;;;2.17;;
56481;SDS011;42384;45.186;19.958;2023-09-19T13:40:48;15.57;;;2.63;;
56481;SDS011;42384;45.186;19.958;2023-09-19T13:43:17;17.85;;;2.33;;
56481;SDS011;42384;45.186;19.958;2023-09-19T13:45:43;15.63;;;1.80;;
56481;SDS011;42384;45.186;19.958;2023-09-19T13:48:10;10.75;;;2.10;;
56481;SDS011;42384;45.186;19.958;2023-09-19T13:50:39;11.18;;;2.33;;
56481;SDS011;42384;45.186;19.958;2023-09-19T13:53:09;17.15;;;2.03;;
56481;SDS011;42384;45.186;19.958;2023-09-19T13:55:36;18.40;;;2.55;;
56481;SDS011;42384;45.186;19.958;2023-09-19T13:58:03;19.48;;;2.33;;
56481;SDS011;42384;45.186;19.958;2023-09-19T14:00:31;15.27;;;2.20;;
56481;SDS011;42384;45.186;19.958;2023-09-19T14:03:01;12.15;;;2.30;;
56481;SDS011;42384;45.186;19.958;2023-09-19T14:05:29;15.48;;;1.88;;
56481;SDS011;42384;45.186;19.958;2023-09-19T14:07:56;17.95;;;2.30;;
56481;SDS011;42384;45.186;19.958;2023-09-19T14:10:24;9.18;;;1.98;;
56481;SDS011;42384;45.186;19.958;2023-09-19T14:12:55;8.35;;;1.60;;
56481;SDS011;42384;45.186;19.958;2023-09-19T14:15:23;15.23;;;1.90;;
56481;SDS011;42384;45.186;19.958;2023-09-19T14:17:54;13.93;;;2.30;;
56481;SDS011;42384;45.186;19.958;2023-09-19T14:20:21;14.48;;;2.00;;
56481;SDS011;42384;45.186;19.958;2023-09-19T14:22:48;12.30;;;2.28;;
56481;SDS011;42384;45.186;19.958;2023-09-19T14:27:40;10.02;;;1.98;;
56481;SDS011;42384;45.186;19.958;2023-09-19T14:30:07;9.52;;;1.45;;
56481;SDS011;42384;45.186;19.958;2023-09-19T14:32:34;12.68;;;1.90;;
56481;SDS011;42384;45.186;19.958;2023-09-19T14:35:01;9.73;;;1.85;;
56481;SDS011;42384;45.186;19.958;2023-09-19T14:39:53;16.67;;;2.17;;
56481;SDS011;42384;45.186;19.958;2023-09-19T14:42:20;13.63;;;2.85;;
56481;SDS011;42384;45.186;19.958;2023-09-19T14:47:15;13.15;;;2.05;;
56481;SDS011;42384;45.186;19.958;2023-09-19T14:49:42;8.45;;;1.48;;
56481;SDS011;42384;45.186;19.958;2023-09-19T14:52:08;13.98;;;1.73;;
56481;SDS011;42384;45.186;19.958;2023-09-19T14:54:35;11.40;;;1.88;;
56481;SDS011;42384;45.186;19.958;2023-09-19T14:57:03;10.80;;;1.58;;
56481;SDS011;42384;45.186;19.958;2023-09-19T14:59:32;7.53;;;1.73;;
56481;SDS011;42384;45.186;19.958;2023-09-19T15:02:02;13.45;;;1.67;;
56481;SDS011;42384;45.186;19.958;2023-09-19T15:04:28;13.88;;;1.88;;
56481;SDS011;42384;45.186;19.958;2023-09-19T15:06:55;14.02;;;1.77;;
56481;SDS011;42384;45.186;19.958;2023-09-19T15:09:21;22.33;;;2.38;;
56481;SDS011;42384;45.186;19.958;2023-09-19T15:11:54;28.20;;;2.97;;
56481;SDS011;42384;45.186;19.958;2023-09-19T15:14:20;25.40;;;2.33;;
56481;SDS011;42384;45.186;19.958;2023-09-19T15:16:47;11.20;;;2.13;;
56481;SDS011;42384;45.186;19.958;2023-09-19T15:21:40;13.25;;;2.75;;
56481;SDS011;42384;45.186;19.958;2023-09-19T15:24:06;11.70;;;2.00;;
56481;SDS011;42384;45.186;19.958;2023-09-19T15:26:35;13.40;;;2.55;;
56481;SDS011;42384;45.186;19.958;2023-09-19T15:29:05;11.38;;;1.50;;
56481;SDS011;42384;45.186;19.958;2023-09-19T15:31:31;4.95;;;1.77;;
56481;SDS011;42384;45.186;19.958;2023-09-19T15:33:58;9.55;;;1.80;;
56481;SDS011;42384;45.186;19.958;2023-09-19T15:36:24;12.80;;;2.00;;
56481;SDS011;42384;45.186;19.958;2023-09-19T15:41:18;8.45;;;1.70;;
56481;SDS011;42384;45.186;19.958;2023-09-19T15:43:45;10.13;;;1.77;;
56481;SDS011;42384;45.186;19.958;2023-09-19T15:46:11;11.32;;;2.38;;
56481;SDS011;42384;45.186;19.958;2023-09-19T15:48:38;10.20;;;1.92;;
56481;SDS011;42384;45.186;19.958;2023-09-19T15:51:04;12.98;;;2.13;;
56481;SDS011;42384;45.186;19.958;2023-09-19T15:53:36;9.48;;;2.38;;
56481;SDS011;42384;45.186;19.958;2023-09-19T15:56:07;11.38;;;2.13;;
56481;SDS011;42384;45.186;19.958;2023-09-19T15:58:34;9.65;;;1.98;;
56481;SDS011;42384;45.186;19.958;2023-09-19T16:01:07;7.03;;;1.30;;
56481;SDS011;42384;45.186;19.958;2023-09-19T16:03:37;10.20;;;0.98;;
56481;SDS011;42384;45.186;19.958;2023-09-19T16:06:10;7.63;;;1.52;;
56481;SDS011;42384;45.186;19.958;2023-09-19T16:08:43;12.30;;;2.00;;
56481;SDS011;42384;45.186;19.958;2023-09-19T16:11:09;13.43;;;1.77;;
56481;SDS011;42384;45.186;19.958;2023-09-19T16:13:36;11.02;;;1.30;;
56481;SDS011;42384;45.186;19.958;2023-09-19T16:16:03;13.45;;;2.00;;
56481;SDS011;42384;45.186;19.958;2023-09-19T16:18:29;8.50;;;1.80;;
56481;SDS011;42384;45.186;19.958;2023-09-19T16:21:04;8.60;;;1.35;;
56481;SDS011;42384;45.186;19.958;2023-09-19T16:23:31;11.05;;;1.33;;
56481;SDS011;42384;45.186;19.958;2023-09-19T16:26:15;9.00;;;1.30;;
56481;SDS011;42384;45.186;19.958;2023-09-19T16:28:44;6.68;;;1.30;;